Pagina principale
METAR-TAF:

METAR-TAF

Aeroporti :

Bückeburg, Germania

latitudine: 52-17N, longitudine: 009-05E, altezza: 70 m

Osservazione

Il bollettino è stato emesso 20 minuti fa, alle 22:20 UTC
Vento calmo
Temperature 19°C
Umidità 78%
Pressione 1022 hPa
Visibilità: 4300 m

METAR: ETHB 222220Z AUTO 00000KT 4300 // ////// 19/15 Q1022 ///

Ora: 00:40 (22:40 UTC)

Previsione

Il bollettino è stato emesso 7 ore e 41 minuti fa, alle 14:59 UTC
Previsione valida dal 22 alle 14 UTC al 22 alle 23 UTC
Vento 6 kt da ovest
Visibilità: 1515 m
Poco nuvoloso ad un'altezza di 6000 ft
Nubi sparse ad un'altezza di 12000 ft
Nuvoloso ad un'altezza di 26000 ft

TAF: ETHB 221459Z 2214/2223 26006KT 9999 NSW FEW060 SCT120 BKN260 CANCEL 1515

Osservazioni e previsioni meteorologiche di più di 4000 aeroporti (messaggi METAR e TAF).

Le stazioni disponibili sono rappresentate dai dischi gialli e rossi sulla carta.

Puntare il mouse per vedere il nome della stazione.

Clicca sopra per visualizzare le osservazioni e previsioni meteorologiche.

Per cambiare la mappa : fare clic sui pulsanti verdi con una croce nera per ingrandire, il pulsante verde con un trattino per diminuire, o sulla freccia verde per le mappe adiacenti.


METAR-TAF: